Time,TemperatureF,DewpointF,PressureIn,WindDirection,WindDirectionDegrees,WindSpeedMPH,WindSpeedGustMPH,Humidity,HourlyPrecipIn,Conditions,Clouds,dailyrainin,SoftwareType,DateUTC
2013-01-25 00:09:00,58.0,53.8,30.13,ENE,63,0.0,0.0,86,0.00,,,0.00,Wunderground v.1.15,2013-01-25 08:09:00,
2013-01-25 00:19:00,58.1,53.9,30.12,ENE,62,0.0,1.0,86,0.00,,,0.00,Wunderground v.1.15,2013-01-25 08:19:00,
2013-01-25 00:29:00,58.3,53.8,30.11,NE,52,3.0,3.0,85,0.00,,,0.00,Wunderground v.1.15,2013-01-25 08:29:00,
2013-01-25 00:39:00,58.6,53.8,30.11,ENE,66,2.0,2.0,84,0.00,,,0.00,Wunderground v.1.15,2013-01-25 08:39:00,
2013-01-25 00:49:00,58.9,53.7,30.11,ENE,66,1.0,2.0,83,0.00,,,0.00,Wunderground v.1.15,2013-01-25 08:49:00,
2013-01-25 00:59:00,58.9,53.4,30.11,ENE,65,1.0,3.0,82,0.00,,,0.00,Wunderground v.1.15,2013-01-25 08:59:00,
2013-01-25 01:09:00,58.9,53.4,30.11,ENE,66,0.0,0.0,82,0.00,,,0.00,Wunderground v.1.15,2013-01-25 09:09:00,
2013-01-25 01:19:00,59.0,53.5,30.11,ENE,66,0.0,0.0,82,0.00,,,0.00,Wunderground v.1.15,2013-01-25 09:19:00,
2013-01-25 01:29:00,59.2,53.7,30.11,ENE,66,1.0,2.0,82,0.00,,,0.00,Wunderground v.1.15,2013-01-25 09:29:00,
2013-01-25 01:39:00,59.5,53.7,30.11,ENE,67,1.0,3.0,81,0.00,,,0.00,Wunderground v.1.15,2013-01-25 09:39:00,
2013-01-25 01:49:00,59.8,53.6,30.11,East,94,2.0,2.0,80,0.00,,,0.00,Wunderground v.1.15,2013-01-25 09:49:00,
2013-01-25 01:59:00,59.9,53.4,30.10,East,95,1.0,1.0,79,0.00,,,0.00,Wunderground v.1.15,2013-01-25 09:59:00,
2013-01-25 02:09:00,60.1,53.2,30.10,East,94,0.0,0.0,78,0.00,,,0.00,Wunderground v.1.15,2013-01-25 10:09:00,
2013-01-25 02:19:00,60.1,52.9,30.10,East,94,0.0,0.0,77,0.00,,,0.00,Wunderground v.1.15,2013-01-25 10:19:00,
2013-01-25 02:29:00,60.2,52.6,30.09,NE,40,0.0,1.0,76,0.00,,,0.00,Wunderground v.1.15,2013-01-25 10:29:00,
2013-01-25 02:39:00,60.5,52.5,30.09,East,92,2.0,2.0,75,0.00,,,0.00,Wunderground v.1.15,2013-01-25 10:39:00,
2013-01-25 02:49:00,60.5,52.5,30.09,East,92,0.0,0.0,75,0.00,,,0.00,Wunderground v.1.15,2013-01-25 10:49:00,
2013-01-25 02:59:00,60.2,52.2,30.08,East,92,1.0,1.0,75,0.00,,,0.00,Wunderground v.1.15,2013-01-25 10:59:00,
2013-01-25 03:09:00,60.1,52.1,30.08,East,92,0.0,0.0,75,0.00,,,0.00,Wunderground v.1.15,2013-01-25 11:09:00,
2013-01-25 03:19:00,60.1,52.1,30.08,East,92,0.0,0.0,75,0.00,,,0.00,Wunderground v.1.15,2013-01-25 11:19:00,
2013-01-25 03:29:00,59.9,52.0,30.07,East,92,0.0,0.0,75,0.00,,,0.00,Wunderground v.1.15,2013-01-25 11:29:00,
2013-01-25 03:39:00,59.8,51.9,30.07,East,92,0.0,0.0,75,0.00,,,0.00,Wunderground v.1.15,2013-01-25 11:39:00,
2013-01-25 03:49:00,59.6,52.0,30.07,East,92,1.0,3.0,76,0.00,,,0.00,Wunderground v.1.15,2013-01-25 11:49:00,
2013-01-25 03:59:00,59.5,51.9,30.06,NE,42,3.0,3.0,76,0.00,,,0.00,Wunderground v.1.15,2013-01-25 11:59:00,
2013-01-25 04:09:00,59.6,51.7,30.06,NE,42,3.0,3.0,75,0.00,,,0.00,Wunderground v.1.15,2013-01-25 12:09:00,
2013-01-25 04:19:00,59.5,51.6,30.06,NE,42,0.0,0.0,75,0.00,,,0.00,Wunderground v.1.15,2013-01-25 12:19:00,
2013-01-25 04:29:00,59.5,51.6,30.06,NE,42,0.0,1.0,75,0.00,,,0.00,Wunderground v.1.15,2013-01-25 12:29:00,
2013-01-25 04:39:00,59.5,51.6,30.06,NE,42,1.0,1.0,75,0.00,,,0.00,Wunderground v.1.15,2013-01-25 12:39:00,
2013-01-25 04:49:00,59.3,51.4,30.05,NE,42,0.0,0.0,75,0.00,,,0.00,Wunderground v.1.15,2013-01-25 12:49:00,
2013-01-25 04:59:00,59.3,51.4,30.05,NE,42,0.0,0.0,75,0.00,,,0.00,Wunderground v.1.15,2013-01-25 12:59:00,
2013-01-25 05:09:00,59.2,51.3,30.05,NE,42,0.0,0.0,75,0.00,,,0.00,Wunderground v.1.15,2013-01-25 13:09:00,
2013-01-25 05:19:00,59.0,51.1,30.05,NE,42,0.0,0.0,75,0.00,,,0.00,Wunderground v.1.15,2013-01-25 13:19:00,
2013-01-25 05:29:00,59.0,51.1,30.05,NE,42,1.0,1.0,75,0.00,,,0.00,Wunderground v.1.15,2013-01-25 13:29:00,
2013-01-25 05:39:00,59.2,50.5,30.05,NE,42,1.0,1.0,73,0.00,,,0.00,Wunderground v.1.15,2013-01-25 13:39:00,
2013-01-25 05:49:00,59.3,50.6,30.05,NE,42,0.0,0.0,73,0.00,,,0.00,Wunderground v.1.15,2013-01-25 13:49:00,
2013-01-25 05:59:00,59.5,50.5,30.05,NE,42,0.0,0.0,72,0.00,,,0.00,Wunderground v.1.15,2013-01-25 13:59:00,
2013-01-25 06:09:00,59.9,50.1,30.05,NE,42,0.0,0.0,70,0.00,,,0.00,Wunderground v.1.15,2013-01-25 14:09:00,
2013-01-25 06:19:00,60.4,50.2,30.06,NE,46,2.0,2.0,69,0.00,,,0.00,Wunderground v.1.15,2013-01-25 14:19:00,
2013-01-25 06:29:00,60.5,49.1,30.07,East,80,2.0,5.0,66,0.00,,,0.00,Wunderground v.1.15,2013-01-25 14:29:00,
2013-01-25 06:39:00,61.3,48.6,30.07,ESE,113,4.0,4.0,63,0.00,,,0.00,Wunderground v.1.15,2013-01-25 14:39:00,
2013-01-25 06:49:00,61.8,48.6,30.06,ESE,111,3.0,3.0,62,0.00,,,0.00,Wunderground v.1.15,2013-01-25 14:49:00,
2013-01-25 06:59:00,61.5,48.8,30.06,ESE,111,2.0,2.0,63,0.00,,,0.00,Wunderground v.1.15,2013-01-25 14:59:00,
2013-01-25 07:09:00,61.2,48.9,30.06,ESE,112,2.0,2.0,64,0.00,,,0.00,Wunderground v.1.15,2013-01-25 15:09:00,
2013-01-25 07:19:00,61.3,48.6,30.07,ESE,112,1.0,1.0,63,0.00,,,0.00,Wunderground v.1.15,2013-01-25 15:19:00,
2013-01-25 07:29:00,61.3,48.6,30.07,ESE,112,1.0,1.0,63,0.00,,,0.00,Wunderground v.1.15,2013-01-25 15:29:00,
2013-01-25 07:39:00,61.5,48.4,30.07,ESE,109,2.0,4.0,62,0.00,,,0.00,Wunderground v.1.15,2013-01-25 15:39:00,
2013-01-25 07:49:00,61.6,48.4,30.07,ESE,108,4.0,6.0,62,0.00,,,0.00,Wunderground v.1.15,2013-01-25 15:49:00,
2013-01-25 07:59:00,61.6,48.4,30.08,ESE,109,4.0,7.0,62,0.00,,,0.00,Wunderground v.1.15,2013-01-25 15:59:00,
2013-01-25 08:09:00,61.6,48.4,30.08,East,96,4.0,4.0,62,0.00,,,0.00,Wunderground v.1.15,2013-01-25 16:09:00,
2013-01-25 08:19:00,61.6,48.4,30.08,ESE,115,5.0,5.0,62,0.00,,,0.00,Wunderground v.1.15,2013-01-25 16:19:00,
2013-01-25 08:29:00,61.5,48.8,30.08,ESE,115,3.0,4.0,63,0.00,,,0.00,Wunderground v.1.15,2013-01-25 16:29:00,
2013-01-25 08:39:00,61.5,48.8,30.08,ESE,115,3.0,3.0,63,0.00,,,0.00,Wunderground v.1.15,2013-01-25 16:39:00,
2013-01-25 08:49:00,61.8,48.6,30.09,ESE,116,4.0,4.0,62,0.00,,,0.01,Wunderground v.1.15,2013-01-25 16:49:00,
2013-01-25 08:59:00,62.0,48.0,30.09,ESE,123,3.0,6.0,60,0.00,,,0.01,Wunderground v.1.15,2013-01-25 16:59:00,
2013-01-25 09:09:00,62.7,48.2,30.09,ESE,121,2.0,2.0,59,0.00,,,0.01,Wunderground v.1.15,2013-01-25 17:09:00,
2013-01-25 09:19:00,62.6,48.5,30.10,ESE,121,1.0,3.0,60,0.00,,,0.01,Wunderground v.1.15,2013-01-25 17:19:00,
2013-01-25 09:29:00,62.7,49.5,30.11,NE,34,2.0,2.0,62,0.00,,,0.01,Wunderground v.1.15,2013-01-25 17:29:00,
2013-01-25 09:39:00,62.0,50.5,30.11,NE,55,2.0,2.0,66,0.00,,,0.02,Wunderground v.1.15,2013-01-25 17:39:00,
2013-01-25 09:49:00,61.3,50.2,30.11,NE,41,1.0,1.0,67,0.00,,,0.02,Wunderground v.1.15,2013-01-25 17:49:00,
2013-01-25 09:59:00,61.0,50.4,30.11,NE,41,1.0,1.0,68,0.00,,,0.02,Wunderground v.1.15,2013-01-25 17:59:00,
2013-01-25 10:09:00,61.2,50.9,30.11,East,81,2.0,2.0,69,0.00,,,0.02,Wunderground v.1.15,2013-01-25 18:09:00,
2013-01-25 10:19:00,61.2,50.9,30.11,SE,132,3.0,3.0,69,0.00,,,0.02,Wunderground v.1.15,2013-01-25 18:19:00,
2013-01-25 10:29:00,61.0,50.8,30.12,ESE,109,1.0,5.0,69,0.00,,,0.02,Wunderground v.1.15,2013-01-25 18:29:00,
2013-01-25 10:39:00,60.7,51.2,30.12,East,92,4.0,5.0,71,0.00,,,0.03,Wunderground v.1.15,2013-01-25 18:39:00,
2013-01-25 10:49:00,59.3,52.1,30.13,ENE,65,5.0,5.0,77,0.00,,,0.03,Wunderground v.1.15,2013-01-25 18:49:00,
2013-01-25 10:59:00,58.3,52.5,30.13,East,85,1.0,4.0,81,0.04,,,0.04,Wunderground v.1.15,2013-01-25 18:59:00,
2013-01-25 11:09:00,58.0,52.9,30.13,East,85,0.0,0.0,83,0.04,,,0.05,Wunderground v.1.15,2013-01-25 19:09:00,
2013-01-25 11:19:00,57.8,53.3,30.12,East,85,0.0,0.0,85,0.04,,,0.05,Wunderground v.1.15,2013-01-25 19:19:00,
2013-01-25 11:29:00,58.0,53.8,30.11,East,85,1.0,1.0,86,0.00,,,0.05,Wunderground v.1.15,2013-01-25 19:29:00,
2013-01-25 11:39:00,57.6,53.8,30.11,East,85,1.0,2.0,87,0.00,,,0.06,Wunderground v.1.15,2013-01-25 19:39:00,
2013-01-25 11:49:00,57.3,53.5,30.10,East,85,1.0,1.0,87,0.00,,,0.06,Wunderground v.1.15,2013-01-25 19:49:00,
2013-01-25 11:59:00,57.3,53.8,30.08,East,85,0.0,0.0,88,0.10,,,0.08,Wunderground v.1.15,2013-01-25 19:59:00,
2013-01-25 12:09:00,57.5,54.3,30.08,East,85,0.0,1.0,89,0.05,,,0.08,Wunderground v.1.15,2013-01-25 20:09:00,
2013-01-25 12:19:00,58.0,54.8,30.07,NE,44,3.0,5.0,89,0.00,,,0.08,Wunderground v.1.15,2013-01-25 20:19:00,
2013-01-25 12:29:00,58.1,54.9,30.06,NE,46,4.0,4.0,89,0.00,,,0.08,Wunderground v.1.15,2013-01-25 20:29:00,
2013-01-25 12:39:00,58.3,55.1,30.06,NE,46,3.0,4.0,89,0.00,,,0.08,Wunderground v.1.15,2013-01-25 20:39:00,
2013-01-25 13:09:00,58.6,55.1,30.03,East,84,4.0,4.0,88,0.00,,,0.08,Wunderground v.1.15,2013-01-25 21:09:00,
2013-01-25 13:19:00,59.2,55.0,30.03,ENE,62,2.0,4.0,86,0.00,,,0.08,Wunderground v.1.15,2013-01-25 21:19:00,
2013-01-25 13:29:00,60.1,55.2,30.03,ENE,60,2.0,4.0,84,0.00,,,0.08,Wunderground v.1.15,2013-01-25 21:29:00,
2013-01-25 13:39:00,60.4,54.9,30.03,NE,46,3.0,3.0,82,0.00,,,0.08,Wunderground v.1.15,2013-01-25 21:39:00,
2013-01-25 13:49:00,61.0,54.4,30.01,ENE,59,2.0,3.0,79,0.00,,,0.08,Wunderground v.1.15,2013-01-25 21:49:00,
2013-01-25 13:59:00,61.6,54.3,30.02,ESE,109,2.0,3.0,77,0.00,,,0.08,Wunderground v.1.15,2013-01-25 21:59:00,
2013-01-25 14:09:00,61.8,53.8,30.02,ESE,103,2.0,4.0,75,0.00,,,0.08,Wunderground v.1.15,2013-01-25 22:09:00,
2013-01-25 14:19:00,62.0,53.6,30.02,East,94,3.0,3.0,74,0.00,,,0.08,Wunderground v.1.15,2013-01-25 22:19:00,
2013-01-25 14:29:00,62.1,53.3,30.02,ESE,104,2.0,2.0,73,0.00,,,0.08,Wunderground v.1.15,2013-01-25 22:29:00,
2013-01-25 14:39:00,62.1,53.3,30.02,ESE,104,5.0,5.0,73,0.00,,,0.08,Wunderground v.1.15,2013-01-25 22:39:00,
2013-01-25 14:49:00,62.0,53.2,30.02,ESE,109,4.0,4.0,73,0.00,,,0.08,Wunderground v.1.15,2013-01-25 22:49:00,
2013-01-25 14:59:00,62.0,53.2,30.02,ESE,105,3.0,4.0,73,0.00,,,0.08,Wunderground v.1.15,2013-01-25 22:59:00,
2013-01-25 15:09:00,61.8,53.1,30.02,East,89,3.0,3.0,73,0.00,,,0.08,Wunderground v.1.15,2013-01-25 23:09:00,
2013-01-25 15:19:00,61.6,53.2,30.00,ESE,106,3.0,5.0,74,0.00,,,0.08,Wunderground v.1.15,2013-01-25 23:19:00,
2013-01-25 15:29:00,61.3,53.3,30.01,ESE,113,4.0,6.0,75,0.00,,,0.08,Wunderground v.1.15,2013-01-25 23:29:00,
2013-01-25 15:39:00,61.0,53.7,30.01,ESE,110,4.0,6.0,77,0.00,,,0.08,Wunderground v.1.15,2013-01-25 23:39:00,
2013-01-25 15:49:00,60.5,53.6,30.00,East,100,4.0,4.0,78,0.00,,,0.08,Wunderground v.1.15,2013-01-25 23:49:00,
2013-01-25 15:59:00,60.2,53.7,30.00,ESE,104,3.0,3.0,79,0.00,,,0.08,Wunderground v.1.15,2013-01-25 23:59:00,
2013-01-25 16:09:00,59.6,53.8,30.00,ESE,104,3.0,3.0,81,0.00,,,0.09,Wunderground v.1.15,2013-01-26 00:09:00,
2013-01-25 16:19:00,59.3,54.1,29.98,ESE,104,2.0,2.0,83,0.00,,,0.09,Wunderground v.1.15,2013-01-26 00:19:00,
2013-01-25 16:29:00,59.2,54.0,29.98,ESE,105,2.0,2.0,83,0.00,,,0.09,Wunderground v.1.15,2013-01-26 00:29:00,
2013-01-25 16:39:00,59.3,54.5,29.99,ESE,123,3.0,4.0,84,0.00,,,0.09,Wunderground v.1.15,2013-01-26 00:39:00,
2013-01-25 16:49:00,59.3,54.1,29.99,SE,144,2.0,2.0,83,0.00,,,0.09,Wunderground v.1.15,2013-01-26 00:49:00,
2013-01-25 16:59:00,59.3,54.1,29.99,SE,142,1.0,1.0,83,0.00,,,0.09,Wunderground v.1.15,2013-01-26 00:59:00,
2013-01-25 17:09:00,59.5,54.0,29.99,SE,142,1.0,4.0,82,0.00,,,0.09,Wunderground v.1.15,2013-01-26 01:09:00,
2013-01-25 17:19:00,59.5,53.7,29.99,SE,142,2.0,2.0,81,0.00,,,0.09,Wunderground v.1.15,2013-01-26 01:19:00,
2013-01-25 17:29:00,59.6,53.8,29.99,SE,142,1.0,2.0,81,0.00,,,0.09,Wunderground v.1.15,2013-01-26 01:29:00,
2013-01-25 17:39:00,59.6,53.8,29.99,SE,142,0.0,0.0,81,0.00,,,0.09,Wunderground v.1.15,2013-01-26 01:39:00,
2013-01-25 17:49:00,59.5,53.7,30.00,SE,142,0.0,0.0,81,0.00,,,0.09,Wunderground v.1.15,2013-01-26 01:49:00,
2013-01-25 17:59:00,59.3,53.8,30.00,SE,142,0.0,0.0,82,0.00,,,0.09,Wunderground v.1.15,2013-01-26 01:59:00,
2013-01-25 18:09:00,59.2,54.0,30.00,SE,142,0.0,0.0,83,0.00,,,0.09,Wunderground v.1.15,2013-01-26 02:09:00,
2013-01-25 18:19:00,59.0,54.2,30.00,SE,142,1.0,1.0,84,0.00,,,0.09,Wunderground v.1.15,2013-01-26 02:19:00,
2013-01-25 18:29:00,58.7,54.2,30.00,NW,325,3.0,6.0,85,0.00,,,0.09,Wunderground v.1.15,2013-01-26 02:29:00,
2013-01-25 18:39:00,58.4,54.2,30.00,NW,320,4.0,5.0,86,0.00,,,0.09,Wunderground v.1.15,2013-01-26 02:39:00,
2013-01-25 18:49:00,58.3,54.4,30.00,NW,320,2.0,2.0,87,0.00,,,0.09,Wunderground v.1.15,2013-01-26 02:49:00,
2013-01-25 18:59:00,58.1,54.2,30.00,NW,320,2.0,2.0,87,0.00,,,0.09,Wunderground v.1.15,2013-01-26 02:59:00,
2013-01-25 19:09:00,58.1,54.6,30.00,NW,321,0.0,0.0,88,0.00,,,0.09,Wunderground v.1.15,2013-01-26 03:09:00,
2013-01-25 19:20:00,58.3,54.8,30.00,NW,321,2.0,2.0,88,0.00,,,0.09,Wunderground v.1.15,2013-01-26 03:20:00,
2013-01-25 19:29:00,58.3,54.8,30.00,NW,321,1.0,1.0,88,0.00,,,0.10,Wunderground v.1.15,2013-01-26 03:29:00,
2013-01-25 19:39:00,58.3,54.8,30.00,NW,321,1.0,1.0,88,0.00,,,0.10,Wunderground v.1.15,2013-01-26 03:39:00,
2013-01-25 19:50:00,58.3,55.1,29.99,NW,321,1.0,1.0,89,0.00,,,0.10,Wunderground v.1.15,2013-01-26 03:50:00,
2013-01-25 19:59:00,58.3,55.1,29.99,NW,321,2.0,2.0,89,0.00,,,0.10,Wunderground v.1.15,2013-01-26 03:59:00,
2013-01-25 20:09:00,58.1,54.9,29.99,NW,321,0.0,0.0,89,0.00,,,0.11,Wunderground v.1.15,2013-01-26 04:09:00,
2013-01-25 20:19:00,58.0,54.8,29.99,NW,321,0.0,3.0,89,0.00,,,0.11,Wunderground v.1.15,2013-01-26 04:19:00,
2013-01-25 20:29:00,57.8,54.6,29.98,NW,321,1.0,1.0,89,0.00,,,0.11,Wunderground v.1.15,2013-01-26 04:29:00,
2013-01-25 20:39:00,57.8,54.6,29.98,NW,320,1.0,2.0,89,0.00,,,0.11,Wunderground v.1.15,2013-01-26 04:39:00,
2013-01-25 20:49:00,57.6,54.4,29.97,NW,321,2.0,2.0,89,0.00,,,0.11,Wunderground v.1.15,2013-01-26 04:49:00,
2013-01-25 20:59:00,57.6,54.4,29.98,NW,321,3.0,3.0,89,0.00,,,0.11,Wunderground v.1.15,2013-01-26 04:59:00,
2013-01-25 21:09:00,57.6,54.4,29.98,NW,321,1.0,2.0,89,0.00,,,0.11,Wunderground v.1.15,2013-01-26 05:09:00,
2013-01-25 21:19:00,57.6,54.4,29.99,NW,321,2.0,2.0,89,0.00,,,0.11,Wunderground v.1.15,2013-01-26 05:19:00,
2013-01-25 21:29:00,57.8,54.6,29.99,NW,321,2.0,2.0,89,0.00,,,0.11,Wunderground v.1.15,2013-01-26 05:29:00,
2013-01-25 21:39:00,57.8,54.6,29.99,NW,322,4.0,4.0,89,0.00,,,0.11,Wunderground v.1.15,2013-01-26 05:39:00,
2013-01-25 21:49:00,57.6,54.4,29.99,NW,323,3.0,3.0,89,0.00,,,0.11,Wunderground v.1.15,2013-01-26 05:49:00,
2013-01-25 21:59:00,57.6,54.4,29.99,NW,323,2.0,3.0,89,0.00,,,0.11,Wunderground v.1.15,2013-01-26 05:59:00,
2013-01-25 22:09:00,57.5,54.0,29.99,North,350,3.0,3.0,88,0.00,,,0.11,Wunderground v.1.15,2013-01-26 06:09:00,
2013-01-25 22:19:00,57.5,54.0,29.99,North,350,2.0,2.0,88,0.00,,,0.11,Wunderground v.1.15,2013-01-26 06:19:00,
2013-01-25 22:29:00,57.3,54.1,29.99,North,350,0.0,0.0,89,0.09,,,0.13,Wunderground v.1.15,2013-01-26 06:29:00,
2013-01-25 22:39:00,57.3,54.1,29.99,North,350,0.0,1.0,89,0.06,,,0.13,Wunderground v.1.15,2013-01-26 06:39:00,
2013-01-25 22:49:00,57.3,54.1,29.99,North,350,0.0,2.0,89,0.00,,,0.13,Wunderground v.1.15,2013-01-26 06:49:00,
2013-01-25 22:59:00,57.2,54.0,29.99,North,350,0.0,0.0,89,0.00,,,0.13,Wunderground v.1.15,2013-01-26 06:59:00,
2013-01-25 23:09:00,57.2,54.0,29.99,North,350,0.0,0.0,89,0.00,,,0.13,Wunderground v.1.15,2013-01-26 07:09:00,
2013-01-25 23:19:00,57.0,53.8,29.99,North,350,0.0,0.0,89,0.00,,,0.13,Wunderground v.1.15,2013-01-26 07:19:00,
2013-01-25 23:29:00,56.9,53.7,29.99,North,350,0.0,2.0,89,0.00,,,0.13,Wunderground v.1.15,2013-01-26 07:29:00,
2013-01-25 23:39:00,56.9,54.0,29.99,North,350,0.0,0.0,90,0.00,,,0.14,Wunderground v.1.15,2013-01-26 07:39:00,
2013-01-25 23:49:00,57.0,54.1,29.99,North,350,0.0,1.0,90,0.00,,,0.14,Wunderground v.1.15,2013-01-26 07:49:00,
2013-01-25 23:59:00,56.9,54.0,29.98,North,350,1.0,3.0,90,0.00,,,0.14,Wunderground v.1.15,2013-01-26 07:59:00,